createdAt,value
2018-04-25T00:01:58.079Z,28.87
2018-04-25T00:04:25.784Z,25.90
2018-04-25T00:06:53.368Z,27.37
2018-04-25T00:09:21.000Z,23.57
2018-04-25T00:11:48.612Z,28.23
2018-04-25T00:14:16.357Z,21.17
2018-04-25T00:16:44.013Z,23.03
2018-04-25T00:19:11.604Z,24.17
2018-04-25T00:21:39.273Z,26.83
2018-04-25T00:24:06.899Z,26.73
2018-04-25T00:26:34.856Z,23.07
2018-04-25T00:29:02.465Z,20.83
2018-04-25T00:31:30.101Z,23.87
2018-04-25T00:33:57.800Z,21.93
2018-04-25T00:36:25.430Z,23.20
2018-04-25T00:38:53.364Z,23.70
2018-04-25T00:41:21.051Z,20.50
2018-04-25T00:43:48.946Z,23.57
2018-04-25T00:46:16.588Z,23.70
2018-04-25T00:48:44.319Z,24.20
2018-04-25T00:51:12.795Z,25.03
2018-04-25T00:53:40.431Z,28.50
2018-04-25T00:56:08.060Z,23.53
2018-04-25T00:58:36.137Z,24.27
2018-04-25T01:01:03.753Z,25.83
2018-04-25T01:03:32.244Z,25.33
2018-04-25T01:05:59.872Z,23.60
2018-04-25T01:08:27.682Z,26.33
2018-04-25T01:10:55.296Z,26.97
2018-04-25T01:13:22.908Z,24.33
2018-04-25T01:15:50.578Z,24.67
2018-04-25T01:18:18.719Z,25.43
2018-04-25T01:20:47.168Z,26.33
2018-04-25T01:23:24.913Z,30.97
2018-04-25T01:25:59.661Z,25.60
2018-04-25T01:28:34.094Z,25.70
2018-04-25T01:34:00.084Z,24.63
2018-04-25T01:36:48.306Z,24.70
2018-04-25T01:39:36.037Z,26.63
2018-04-25T01:45:20.961Z,25.53
2018-04-25T01:47:48.673Z,26.03
2018-04-25T01:50:22.824Z,23.40
2018-04-25T01:53:02.350Z,23.93
2018-04-25T01:55:41.857Z,32.63
2018-04-25T01:58:21.264Z,23.70
2018-04-25T02:01:00.795Z,25.83
2018-04-25T02:03:40.203Z,24.47
2018-04-25T02:06:08.063Z,29.70
2018-04-25T02:08:35.728Z,26.23
2018-04-25T02:11:03.380Z,26.77
2018-04-25T02:13:31.040Z,23.57
2018-04-25T02:15:58.657Z,25.63
2018-04-25T02:18:26.401Z,26.87
2018-04-25T02:20:54.023Z,23.37
2018-04-25T02:23:21.702Z,25.77
2018-04-25T02:25:49.290Z,24.40
2018-04-25T02:28:17.357Z,24.97
2018-04-25T02:30:44.962Z,23.47
2018-04-25T02:33:12.621Z,25.63
2018-04-25T02:35:40.236Z,24.53
2018-04-25T02:38:08.759Z,23.10
2018-04-25T02:40:36.393Z,24.70
2018-04-25T02:43:04.037Z,28.07
2018-04-25T02:45:31.608Z,21.97
2018-04-25T02:47:59.192Z,23.10
2018-04-25T02:50:26.832Z,23.83
2018-04-25T02:52:54.425Z,24.27
2018-04-25T02:55:22.834Z,23.00
2018-04-25T02:57:50.449Z,20.77
2018-04-25T03:00:18.069Z,22.63
2018-04-25T03:02:45.722Z,22.87
2018-04-25T03:05:13.312Z,19.80
2018-04-25T03:07:40.955Z,23.63
2018-04-25T03:10:08.568Z,21.67
2018-04-25T03:12:36.232Z,21.30
2018-04-25T03:15:03.875Z,21.47
2018-04-25T03:17:31.543Z,20.03
2018-04-25T03:19:59.461Z,21.10
2018-04-25T03:22:27.105Z,21.00
2018-04-25T03:24:54.743Z,21.97
2018-04-25T03:27:22.343Z,23.43
2018-04-25T03:29:49.956Z,22.13
2018-04-25T03:32:17.600Z,19.23
2018-04-25T03:34:45.208Z,19.07
2018-04-25T03:37:12.839Z,19.07
2018-04-25T03:39:40.494Z,16.63
2018-04-25T03:42:08.121Z,20.63
2018-04-25T03:44:35.760Z,16.90
2018-04-25T03:47:03.429Z,20.27
2018-04-25T03:49:31.048Z,17.80
2018-04-25T03:51:58.664Z,17.80
2018-04-25T03:54:26.276Z,19.33
2018-04-25T03:56:53.896Z,19.07
2018-04-25T03:59:21.576Z,19.17
2018-04-25T04:01:49.208Z,18.20
2018-04-25T04:04:16.840Z,20.30
2018-04-25T04:06:44.518Z,17.00
2018-04-25T04:09:12.868Z,22.07
2018-04-25T04:11:40.518Z,16.43
2018-04-25T04:14:08.150Z,19.10
2018-04-25T04:16:35.787Z,15.37
2018-04-25T04:19:03.371Z,17.23
2018-04-25T04:21:31.004Z,16.47
2018-04-25T04:23:59.038Z,15.17
2018-04-25T04:26:26.668Z,14.23
2018-04-25T04:28:54.282Z,18.13
2018-04-25T04:31:22.039Z,16.07
2018-04-25T04:33:49.683Z,14.33
2018-04-25T04:36:17.316Z,13.47
2018-04-25T04:38:44.952Z,13.20
2018-04-25T04:41:12.570Z,11.73
2018-04-25T04:43:40.232Z,13.70
2018-04-25T04:46:07.876Z,12.13
2018-04-25T04:48:35.844Z,11.37
2018-04-25T04:51:03.475Z,10.80
2018-04-25T04:53:31.085Z,11.17
2018-04-25T04:55:58.723Z,12.73
2018-04-25T04:58:26.304Z,13.93
2018-04-25T05:00:53.876Z,11.10
2018-04-25T05:03:21.584Z,11.73
2018-04-25T05:05:49.989Z,12.43
2018-04-25T05:08:17.600Z,10.87
2018-04-25T05:10:45.230Z,10.30
2018-04-25T05:13:12.929Z,10.90
2018-04-25T05:15:41.305Z,10.13
2018-04-25T05:18:08.941Z,9.73
2018-04-25T05:20:36.522Z,10.83
2018-04-25T05:23:04.100Z,9.57
2018-04-25T05:25:31.679Z,13.03
2018-04-25T05:27:59.303Z,10.33
2018-04-25T05:30:26.936Z,10.07
2018-04-25T05:32:54.591Z,11.27
2018-04-25T05:35:22.232Z,11.60
2018-04-25T05:37:50.666Z,11.60
2018-04-25T05:40:18.280Z,10.73
2018-04-25T05:42:45.859Z,9.70
2018-04-25T05:45:13.512Z,8.10
2018-04-25T05:47:41.135Z,8.93
2018-04-25T05:50:08.776Z,7.00
2018-04-25T05:52:36.398Z,7.63
2018-04-25T05:55:04.022Z,8.80
2018-04-25T05:57:31.660Z,7.20
2018-04-25T05:59:59.274Z,8.27
2018-04-25T06:02:27.668Z,9.27
2018-04-25T06:04:55.274Z,11.20
2018-04-25T06:07:22.859Z,9.97
2018-04-25T06:09:50.439Z,10.60
2018-04-25T06:12:18.075Z,13.10
2018-04-25T06:14:45.673Z,11.57
2018-04-25T06:17:13.264Z,12.73
2018-04-25T06:19:40.852Z,13.23
2018-04-25T06:22:08.478Z,14.80
2018-04-25T06:24:36.127Z,10.83
2018-04-25T06:27:03.779Z,12.80
2018-04-25T06:29:31.381Z,12.40
2018-04-25T06:31:59.000Z,10.33
2018-04-25T06:34:27.381Z,10.83
2018-04-25T06:36:55.816Z,10.27
2018-04-25T06:39:23.553Z,6.77
2018-04-25T06:41:51.117Z,6.67
2018-04-25T06:44:18.954Z,8.03
2018-04-25T06:46:46.594Z,6.93
2018-04-25T06:49:14.239Z,7.60
2018-04-25T06:51:41.854Z,6.13
2018-04-25T06:54:09.467Z,9.77
2018-04-25T06:56:37.081Z,6.93
2018-04-25T06:59:04.656Z,6.10
2018-04-25T07:01:32.349Z,5.67
2018-04-25T07:03:59.924Z,6.63
2018-04-25T07:06:27.504Z,6.30
2018-04-25T07:08:55.092Z,5.03
2018-04-25T07:11:22.723Z,5.17
2018-04-25T07:13:50.295Z,4.40
2018-04-25T07:16:17.934Z,5.10
2018-04-25T07:18:45.613Z,6.47
2018-04-25T07:21:14.036Z,4.77
2018-04-25T07:23:41.630Z,4.53
2018-04-25T07:26:09.268Z,4.80
2018-04-25T07:28:36.944Z,4.40
2018-04-25T07:31:04.573Z,4.10
2018-04-25T07:33:32.186Z,4.63
2018-04-25T07:35:59.830Z,5.10
2018-04-25T07:38:27.461Z,4.23
2018-04-25T07:40:55.092Z,4.70
2018-04-25T07:43:23.486Z,4.40
2018-04-25T07:45:51.116Z,3.70
2018-04-25T07:48:18.773Z,3.87
2018-04-25T07:50:46.468Z,4.70
2018-04-25T07:53:14.104Z,5.27
2018-04-25T07:55:41.738Z,5.53
2018-04-25T07:58:09.312Z,4.80
2018-04-25T08:00:36.928Z,5.03
2018-04-25T08:03:04.488Z,5.93
2018-04-25T08:05:32.072Z,5.87
2018-04-25T08:07:59.646Z,4.53
2018-04-25T08:10:27.276Z,5.50
2018-04-25T08:13:06.576Z,5.33
2018-04-25T08:15:45.868Z,5.53
2018-04-25T08:18:25.227Z,4.70
2018-04-25T08:23:53.539Z,6.63
2018-04-25T08:26:21.107Z,6.73
2018-04-25T08:28:48.706Z,6.57
2018-04-25T08:31:16.361Z,7.23
2018-04-25T08:33:44.001Z,6.10
2018-04-25T08:36:12.369Z,4.80
2018-04-25T08:38:40.180Z,4.43
2018-04-25T08:41:07.793Z,4.80
2018-04-25T08:43:35.434Z,5.10
2018-04-25T08:46:03.016Z,6.03
2018-04-25T08:48:30.641Z,5.90
2018-04-25T08:50:58.215Z,7.67
2018-04-25T08:53:25.853Z,4.53
2018-04-25T08:55:53.485Z,6.80
2018-04-25T08:58:21.122Z,5.13
2018-04-25T09:00:48.690Z,3.90
2018-04-25T09:03:16.315Z,5.87
2018-04-25T09:05:43.922Z,5.63
2018-04-25T09:08:11.561Z,4.70
2018-04-25T09:10:39.133Z,5.73
2018-04-25T09:13:06.750Z,4.03
2018-04-25T09:15:34.374Z,4.10
2018-04-25T09:18:02.051Z,2.40
2018-04-25T09:20:29.704Z,1.70
2018-04-25T09:22:58.077Z,1.80
2018-04-25T09:25:25.683Z,1.17
2018-04-25T09:27:53.311Z,1.43
2018-04-25T09:30:21.704Z,1.97
2018-04-25T09:32:49.337Z,1.10
2018-04-25T09:35:16.977Z,1.80
2018-04-25T09:37:44.582Z,2.63
2018-04-25T09:40:12.219Z,2.53
2018-04-25T09:42:39.850Z,2.10
2018-04-25T09:45:07.495Z,2.50
2018-04-25T09:47:35.133Z,2.73
2018-04-25T09:50:03.555Z,2.37
2018-04-25T09:52:31.163Z,3.43
2018-04-25T09:54:58.803Z,2.77
2018-04-25T09:57:26.507Z,2.30
2018-04-25T09:59:54.106Z,2.30
2018-04-25T10:02:27.410Z,3.43
2018-04-25T10:04:55.035Z,4.40
2018-04-25T10:07:22.668Z,2.10
2018-04-25T10:09:50.438Z,2.90
2018-04-25T10:12:18.078Z,3.20
2018-04-25T10:14:45.684Z,1.60
2018-04-25T10:17:13.273Z,2.20
2018-04-25T10:19:40.916Z,1.67
2018-04-25T10:22:08.525Z,2.80
2018-04-25T10:24:36.122Z,3.63
2018-04-25T10:27:03.748Z,3.17
2018-04-25T10:29:31.360Z,2.50
2018-04-25T10:31:59.065Z,2.20
2018-04-25T10:34:26.669Z,3.10
2018-04-25T10:36:55.110Z,2.97
2018-04-25T10:39:22.713Z,2.90
2018-04-25T10:41:51.084Z,6.07
2018-04-25T10:44:18.777Z,4.23
2018-04-25T10:46:46.378Z,2.93
2018-04-25T10:49:13.947Z,4.57
2018-04-25T10:51:41.589Z,1.90
2018-04-25T10:54:09.158Z,1.50
2018-04-25T10:56:36.788Z,2.07
2018-04-25T10:59:04.464Z,2.63
2018-04-25T11:01:32.104Z,2.37
2018-04-25T11:03:59.731Z,3.17
2018-04-25T11:06:27.299Z,1.70
2018-04-25T11:08:55.670Z,1.87
2018-04-25T11:11:23.300Z,1.70
2018-04-25T11:13:50.914Z,1.83
2018-04-25T11:16:19.252Z,1.80
2018-04-25T11:18:46.829Z,2.70
2018-04-25T11:21:14.472Z,3.70
2018-04-25T11:23:42.145Z,2.73
2018-04-25T11:26:09.797Z,2.00
2018-04-25T11:28:37.432Z,5.10
2018-04-25T11:31:05.000Z,1.73
2018-04-25T11:33:32.618Z,2.17
2018-04-25T11:36:01.021Z,3.00
2018-04-25T11:38:28.655Z,2.93
2018-04-25T11:40:56.234Z,1.83
2018-04-25T11:43:23.920Z,3.50
2018-04-25T11:45:51.491Z,2.70
2018-04-25T11:48:19.100Z,2.80
2018-04-25T11:50:46.749Z,2.13
2018-04-25T11:53:14.316Z,2.53
2018-04-25T11:55:41.948Z,2.27
2018-04-25T11:58:09.593Z,2.30
2018-04-25T12:00:37.228Z,1.93
2018-04-25T12:03:04.908Z,2.90
2018-04-25T12:05:32.563Z,3.37
2018-04-25T12:08:00.169Z,2.40
2018-04-25T12:10:27.824Z,2.30
2018-04-25T12:12:55.457Z,2.13
2018-04-25T12:15:23.094Z,3.53
2018-04-25T12:17:50.695Z,2.07
2018-04-25T12:20:18.275Z,2.30
2018-04-25T12:22:45.853Z,3.37
2018-04-25T12:25:13.426Z,2.93
2018-04-25T12:27:41.063Z,3.57
2018-04-25T12:30:08.709Z,2.67
2018-04-25T12:32:36.347Z,1.90
2018-04-25T12:35:04.164Z,2.10
2018-04-25T12:37:31.831Z,4.47
2018-04-25T12:39:59.476Z,2.57
2018-04-25T12:42:27.128Z,2.17
2018-04-25T12:44:54.961Z,2.67
2018-04-25T12:47:22.606Z,3.33
2018-04-25T12:49:50.962Z,2.33
2018-04-25T12:52:18.574Z,2.13
2018-04-25T12:54:46.185Z,2.77
2018-04-25T12:57:13.814Z,2.50
2018-04-25T12:59:41.442Z,2.40
2018-04-25T13:02:09.848Z,2.47
2018-04-25T13:04:37.470Z,2.83
2018-04-25T13:07:05.253Z,2.60
2018-04-25T13:09:32.884Z,4.00
2018-04-25T13:12:00.532Z,3.50
2018-04-25T13:14:28.113Z,3.07
2018-04-25T13:16:55.767Z,5.07
2018-04-25T13:19:23.400Z,3.37
2018-04-25T13:21:50.986Z,2.60
2018-04-25T13:24:18.565Z,3.07
2018-04-25T13:26:46.220Z,3.53
2018-04-25T13:29:13.915Z,3.00
2018-04-25T13:31:41.484Z,4.33
2018-04-25T13:34:09.159Z,3.80
2018-04-25T13:36:36.769Z,3.50
2018-04-25T13:39:04.583Z,3.87
2018-04-25T13:41:32.359Z,5.33
2018-04-25T13:43:59.927Z,4.73
2018-04-25T13:46:27.587Z,3.83
2018-04-25T13:48:55.224Z,3.53
2018-04-25T13:51:22.884Z,5.67
2018-04-25T13:53:50.496Z,3.60
2018-04-25T13:56:18.064Z,3.87
2018-04-25T13:58:45.691Z,3.80
2018-04-25T14:01:13.268Z,5.03
2018-04-25T14:03:40.872Z,4.33
2018-04-25T14:06:08.614Z,4.27
2018-04-25T14:08:36.189Z,3.90
2018-04-25T14:11:03.835Z,5.13
2018-04-25T14:13:31.440Z,3.50
2018-04-25T14:15:59.053Z,4.67
2018-04-25T14:18:26.687Z,3.73
2018-04-25T14:20:54.262Z,4.40
2018-04-25T14:23:21.837Z,4.30
2018-04-25T14:25:49.500Z,4.90
2018-04-25T14:28:17.105Z,4.67
2018-04-25T14:30:44.887Z,3.40
2018-04-25T14:33:12.530Z,4.87
2018-04-25T14:35:40.905Z,4.13
2018-04-25T14:38:09.304Z,3.60
2018-04-25T14:40:36.939Z,3.67
2018-04-25T14:43:04.617Z,4.07
2018-04-25T14:45:33.016Z,5.07
2018-04-25T14:48:00.616Z,4.70
2018-04-25T14:50:28.258Z,4.23
2018-04-25T14:52:55.888Z,3.90
2018-04-25T14:55:24.270Z,4.23
2018-04-25T14:57:52.661Z,6.83
2018-04-25T15:00:21.481Z,3.87
2018-04-25T15:02:49.154Z,4.37
2018-04-25T15:05:16.816Z,7.90
2018-04-25T15:07:44.592Z,5.37
2018-04-25T15:10:12.224Z,5.30
2018-04-25T15:12:39.869Z,4.33
2018-04-25T15:15:07.509Z,5.87
2018-04-25T15:17:35.120Z,3.90
2018-04-25T15:20:02.789Z,5.37
2018-04-25T15:22:30.489Z,8.90
2018-04-25T15:24:58.131Z,3.97
2018-04-25T15:27:25.777Z,3.73
2018-04-25T15:29:53.413Z,4.90
2018-04-25T15:32:21.076Z,3.90
2018-04-25T15:34:48.682Z,3.90
2018-04-25T15:37:16.266Z,4.10
2018-04-25T15:39:44.664Z,4.30
2018-04-25T15:42:12.297Z,5.90
2018-04-25T15:44:40.049Z,4.90
2018-04-25T15:47:07.664Z,6.47
2018-04-25T15:49:35.315Z,5.90
2018-04-25T15:52:02.928Z,4.77
2018-04-25T15:54:30.516Z,4.03
2018-04-25T15:56:58.124Z,4.40
2018-04-25T15:59:25.707Z,4.10
2018-04-25T16:01:53.279Z,5.33
2018-04-25T16:04:20.875Z,4.30
2018-04-25T16:06:48.508Z,4.83
2018-04-25T16:09:16.075Z,4.83
2018-04-25T16:11:43.653Z,5.33
2018-04-25T16:14:12.034Z,7.67
2018-04-25T16:16:39.610Z,5.07
2018-04-25T16:19:07.396Z,4.67
2018-04-25T16:21:35.039Z,5.40
2018-04-25T16:24:02.676Z,5.63
2018-04-25T16:26:30.304Z,4.63
2018-04-25T16:28:57.903Z,4.20
2018-04-25T16:31:25.541Z,7.03
2018-04-25T16:33:53.164Z,4.40
2018-04-25T16:36:20.792Z,4.67
2018-04-25T16:38:49.211Z,5.10
2018-04-25T16:41:16.821Z,4.53
2018-04-25T16:43:44.451Z,7.03
2018-04-25T16:46:12.090Z,5.43
2018-04-25T16:48:39.725Z,4.67
2018-04-25T16:51:07.361Z,4.50
2018-04-25T16:53:34.998Z,4.83
2018-04-25T16:56:02.607Z,5.67
2018-04-25T16:58:30.985Z,4.17
2018-04-25T17:00:59.442Z,3.80
2018-04-25T17:03:27.076Z,4.60
2018-04-25T17:05:54.660Z,2.63
2018-04-25T17:08:22.269Z,2.27
2018-04-25T17:10:49.877Z,3.00
2018-04-25T17:13:17.499Z,3.60
2018-04-25T17:15:45.072Z,3.03
2018-04-25T17:18:12.708Z,4.60
2018-04-25T17:20:40.335Z,6.47
2018-04-25T17:23:07.962Z,4.07
2018-04-25T17:25:35.555Z,4.10
2018-04-25T17:28:03.203Z,2.80
2018-04-25T17:30:30.795Z,4.97
2018-04-25T17:32:58.437Z,3.43
2018-04-25T17:35:26.049Z,2.70
2018-04-25T17:37:53.656Z,2.83
2018-04-25T17:40:21.321Z,2.80
2018-04-25T17:42:49.009Z,2.33
2018-04-25T17:45:16.655Z,2.47
2018-04-25T17:47:44.318Z,2.67
2018-04-25T17:50:11.982Z,2.27
2018-04-25T17:52:39.623Z,3.07
2018-04-25T17:55:07.405Z,2.93
2018-04-25T17:57:35.020Z,2.33
2018-04-25T18:00:03.686Z,2.97
2018-04-25T18:02:32.019Z,2.30
2018-04-25T18:04:59.664Z,2.60
2018-04-25T18:07:27.304Z,3.30
2018-04-25T18:09:54.916Z,2.83
2018-04-25T18:12:22.564Z,4.00
2018-04-25T18:14:50.196Z,3.40
2018-04-25T18:17:17.824Z,3.67
2018-04-25T18:19:45.459Z,3.40
2018-04-25T18:22:13.077Z,3.73
2018-04-25T18:24:40.713Z,4.17
2018-04-25T18:27:08.296Z,6.43
2018-04-25T18:29:35.914Z,4.97
2018-04-25T18:32:03.529Z,5.63
2018-04-25T18:34:31.169Z,4.40
2018-04-25T18:36:58.749Z,5.97
2018-04-25T18:39:26.406Z,3.73
2018-04-25T18:41:54.036Z,4.00
2018-04-25T18:44:21.687Z,4.27
2018-04-25T18:46:49.272Z,3.67
2018-04-25T18:49:16.910Z,4.27
2018-04-25T18:51:44.508Z,5.77
2018-04-25T18:54:12.917Z,4.70
2018-04-25T18:56:40.584Z,4.90
2018-04-25T18:59:08.160Z,5.30
2018-04-25T19:01:35.795Z,8.00
2018-04-25T19:04:03.442Z,6.43
2018-04-25T19:06:31.029Z,6.20
2018-04-25T19:08:58.641Z,4.47
2018-04-25T19:11:26.286Z,3.90
2018-04-25T19:13:54.016Z,3.67
2018-04-25T19:16:21.594Z,4.27
2018-04-25T19:18:49.156Z,4.40
2018-04-25T19:21:16.761Z,4.33
2018-04-25T19:23:44.342Z,4.30
2018-04-25T19:26:12.748Z,5.47
2018-04-25T19:28:40.397Z,6.17
2018-04-25T19:31:07.999Z,5.90
2018-04-25T19:33:36.032Z,6.00
2018-04-25T19:36:03.597Z,6.47
2018-04-25T19:38:31.264Z,4.70
2018-04-25T19:40:58.916Z,6.70
2018-04-25T19:43:26.516Z,6.23
2018-04-25T19:45:54.263Z,9.80
2018-04-25T19:48:21.876Z,10.80
2018-04-25T19:50:49.672Z,8.23
2018-04-25T19:53:17.269Z,9.67
2018-04-25T19:55:44.865Z,9.00
2018-04-25T19:58:12.514Z,8.40
2018-04-25T20:00:40.150Z,7.30
2018-04-25T20:03:07.777Z,8.43
2018-04-25T20:05:35.405Z,6.67
2018-04-25T20:08:02.973Z,6.67
2018-04-25T20:10:30.621Z,6.47
2018-04-25T20:12:58.205Z,7.40
2018-04-25T20:15:25.873Z,6.93
2018-04-25T20:17:53.489Z,6.43
2018-04-25T20:20:21.255Z,6.07
2018-04-25T20:22:48.888Z,5.60
2018-04-25T20:25:16.459Z,6.70
2018-04-25T20:27:44.098Z,6.80
2018-04-25T20:30:11.671Z,7.10
2018-04-25T20:32:39.240Z,6.40
2018-04-25T20:35:06.880Z,7.70
2018-04-25T20:37:34.463Z,6.80
2018-04-25T20:40:02.089Z,7.50
2018-04-25T20:42:29.688Z,9.27
2018-04-25T20:44:57.288Z,6.53
2018-04-25T20:47:24.933Z,8.30
2018-04-25T20:49:52.562Z,7.83
2018-04-25T20:52:20.308Z,9.57
2018-04-25T20:54:47.899Z,10.57
2018-04-25T20:57:15.509Z,9.77
2018-04-25T20:59:43.154Z,7.77
2018-04-25T21:02:10.798Z,8.10
2018-04-25T21:04:38.385Z,8.50
2018-04-25T21:07:05.979Z,8.93
2018-04-25T21:09:34.319Z,12.90
2018-04-25T21:12:01.949Z,9.00
2018-04-25T21:14:29.597Z,8.40
2018-04-25T21:16:57.242Z,9.80
2018-04-25T21:19:24.857Z,9.63
2018-04-25T21:21:52.479Z,10.57
2018-04-25T21:24:20.120Z,9.77
2018-04-25T21:26:48.535Z,8.33
2018-04-25T21:29:16.182Z,10.67
2018-04-25T21:31:43.832Z,9.70
2018-04-25T21:34:11.434Z,11.83
2018-04-25T21:36:39.069Z,10.63
2018-04-25T21:39:06.641Z,11.03
2018-04-25T21:41:34.226Z,10.60
2018-04-25T21:44:01.864Z,10.80
2018-04-25T21:46:29.526Z,10.53
2018-04-25T21:48:57.127Z,10.63
2018-04-25T21:51:25.564Z,9.60
2018-04-25T21:53:53.192Z,9.77
2018-04-25T21:56:20.795Z,9.53
2018-04-25T21:58:48.374Z,11.17
2018-04-25T22:01:15.972Z,9.30
2018-04-25T22:03:43.602Z,9.53
2018-04-25T22:06:11.265Z,11.27
2018-04-25T22:08:38.859Z,9.63
2018-04-25T22:11:06.493Z,9.93
2018-04-25T22:13:34.176Z,9.83
2018-04-25T22:16:01.784Z,10.07
2018-04-25T22:18:29.421Z,10.73
2018-04-25T22:20:57.807Z,11.07
2018-04-25T22:23:26.191Z,10.13
2018-04-25T22:25:54.548Z,10.37
2018-04-25T22:28:22.198Z,10.93
2018-04-25T22:30:49.828Z,10.47
2018-04-25T22:33:17.478Z,11.03
2018-04-25T22:35:45.060Z,10.67
2018-04-25T22:38:12.659Z,11.03
2018-04-25T22:40:40.323Z,10.20
2018-04-25T22:43:07.952Z,11.67
2018-04-25T22:45:35.547Z,11.40
2018-04-25T22:48:03.183Z,10.57
2018-04-25T22:50:30.755Z,11.03
2018-04-25T22:52:58.359Z,10.40
2018-04-25T22:55:25.932Z,12.33
2018-04-25T22:57:53.578Z,10.43
2018-04-25T23:00:21.183Z,14.83
2018-04-25T23:02:48.845Z,11.40
2018-04-25T23:05:16.503Z,12.80
2018-04-25T23:07:44.183Z,11.10
2018-04-25T23:10:11.825Z,15.73
2018-04-25T23:12:39.452Z,12.50
2018-04-25T23:15:07.091Z,20.20
2018-04-25T23:17:34.714Z,12.43
2018-04-25T23:20:02.413Z,14.37
2018-04-25T23:22:30.003Z,12.60
2018-04-25T23:24:57.740Z,12.37
2018-04-25T23:27:25.339Z,10.77
2018-04-25T23:29:53.130Z,10.33
2018-04-25T23:32:20.700Z,10.83
2018-04-25T23:34:48.289Z,11.27
2018-04-25T23:37:15.925Z,11.80
2018-04-25T23:39:43.527Z,8.93
2018-04-25T23:42:12.066Z,10.00
2018-04-25T23:44:39.701Z,9.67
2018-04-25T23:47:07.504Z,11.90
2018-04-25T23:49:35.126Z,9.10
2018-04-25T23:52:02.752Z,10.37
2018-04-25T23:54:30.375Z,8.13
2018-04-25T23:56:57.976Z,8.90
2018-04-25T23:59:25.623Z,8.50
